Terminal Aerodrome Forecast
Issued by NWS Austin/San Antonio, TX

Home | Current Version | Previous Version | Text Only | Print | Product List | Glossary On
Versions: 1 2 3 4 5 6 7 8 9 10 11 12 13 14 15 16 17 18 19 20 21 22 23 24 25
401
FTUS44 KEWX 272320
TAFAUS
TAF
KAUS 272320Z 2800/2906 13012KT P6SM VCSH SCT050 BKN200
     FM280100 12005KT P6SM FEW020 BKN200
     FM281000 11002KT P6SM SCT008 OVC015
     FM281700 11008KT P6SM BKN040=

USA.gov is the U.S. government's official web portal to all federal, state and local government web resources and services.